createdAt,value
2022-11-29T00:01:34.461Z,94.14
2022-11-29T00:04:03.196Z,94.17
2022-11-29T00:06:32.803Z,94.21
2022-11-29T00:09:06.089Z,93.98
2022-11-29T00:11:54.816Z,94.21
2022-11-29T00:14:23.793Z,94.05
2022-11-29T00:16:53.352Z,94.32
2022-11-29T00:19:21.586Z,94.32
2022-11-29T00:21:49.998Z,94.15
2022-11-29T00:24:18.485Z,94.27
2022-11-29T00:26:48.116Z,93.90
2022-11-29T00:29:16.323Z,94.20
2022-11-29T00:31:44.832Z,93.99
2022-11-29T00:34:13.485Z,93.87
2022-11-29T00:36:41.841Z,94.26
2022-11-29T00:39:11.645Z,94.12
2022-11-29T00:41:40.081Z,94.00
2022-11-29T00:44:12.834Z,94.00
2022-11-29T00:46:43.575Z,93.90
2022-11-29T00:49:11.532Z,93.83
2022-11-29T00:51:39.661Z,94.31
2022-11-29T00:54:07.646Z,94.00
2022-11-29T00:56:35.806Z,93.92
2022-11-29T00:59:03.730Z,93.70
2022-11-29T01:01:33.270Z,94.13
2022-11-29T01:04:01.453Z,94.05
2022-11-29T01:06:29.604Z,93.87
2022-11-29T01:08:57.505Z,93.93
2022-11-29T01:11:27.711Z,93.72
2022-11-29T01:13:57.345Z,93.77
2022-11-29T01:16:26.124Z,93.93
2022-11-29T01:18:55.438Z,94.24
2022-11-29T01:21:25.014Z,94.33
2022-11-29T01:23:53.754Z,93.88
2022-11-29T01:26:23.761Z,94.21
2022-11-29T01:28:53.234Z,94.13
2022-11-29T01:31:23.969Z,93.92
2022-11-29T01:33:55.733Z,93.93
2022-11-29T01:36:24.408Z,93.93
2022-11-29T01:38:52.571Z,93.61
2022-11-29T01:41:23.447Z,93.61
2022-11-29T01:44:00.495Z,93.73
2022-11-29T01:46:30.017Z,93.67
2022-11-29T01:49:03.093Z,93.57
2022-11-29T01:51:31.897Z,93.80
2022-11-29T01:53:59.930Z,94.00
2022-11-29T01:56:29.489Z,93.90
2022-11-29T01:58:57.498Z,93.90
2022-11-29T02:01:26.581Z,93.77
2022-11-29T02:03:54.883Z,93.99
2022-11-29T02:06:24.610Z,93.43
2022-11-29T02:08:52.558Z,93.77
2022-11-29T02:11:48.689Z,93.80
2022-11-29T02:14:31.105Z,93.78
2022-11-29T02:17:04.413Z,93.37
2022-11-29T02:19:57.487Z,93.35
2022-11-29T02:22:32.008Z,93.28
2022-11-29T02:25:11.700Z,93.19
2022-11-29T02:28:13.802Z,93.13
2022-11-29T02:30:56.363Z,93.44
2022-11-29T02:33:43.493Z,93.44
2022-11-29T02:36:26.332Z,93.40
2022-11-29T02:39:09.014Z,93.54
2022-11-29T02:41:50.703Z,93.35
2022-11-29T02:44:52.121Z,93.29
2022-11-29T02:47:27.185Z,93.45
2022-11-29T02:50:12.424Z,93.77
2022-11-29T02:52:46.690Z,93.39
2022-11-29T02:55:19.181Z,93.58
2022-11-29T02:57:53.168Z,93.78
2022-11-29T03:00:22.763Z,93.79
2022-11-29T03:02:56.900Z,93.81
2022-11-29T03:05:33.546Z,94.18
2022-11-29T03:08:07.199Z,94.28
2022-11-29T03:10:40.704Z,94.21
2022-11-29T03:13:14.673Z,94.25
2022-11-29T03:15:53.807Z,94.38
2022-11-29T03:18:33.840Z,94.27
2022-11-29T03:21:09.934Z,94.09
2022-11-29T03:23:39.280Z,94.40
2022-11-29T03:26:10.317Z,94.21
2022-11-29T03:28:40.159Z,94.46
2022-11-29T03:31:14.151Z,94.13
2022-11-29T03:33:48.921Z,94.22
2022-11-29T03:36:25.034Z,93.84
2022-11-29T03:38:53.808Z,94.27
2022-11-29T03:41:26.487Z,94.33
2022-11-29T03:43:58.524Z,94.21
2022-11-29T03:46:31.726Z,94.14
2022-11-29T03:49:03.794Z,94.31
2022-11-29T03:51:40.333Z,94.40
2022-11-29T03:54:11.414Z,94.19
2022-11-29T03:56:41.339Z,94.54
2022-11-29T03:59:22.997Z,94.73
2022-11-29T04:02:03.775Z,94.49
2022-11-29T04:04:55.765Z,94.81
2022-11-29T04:07:40.498Z,95.00
2022-11-29T04:10:16.368Z,94.97
2022-11-29T04:13:21.751Z,94.80
2022-11-29T04:16:07.461Z,94.68
2022-11-29T04:19:00.220Z,95.00
2022-11-29T04:21:45.645Z,94.71
2022-11-29T04:24:44.532Z,94.82
2022-11-29T04:27:30.845Z,95.01
2022-11-29T04:30:07.748Z,94.73
2022-11-29T04:32:52.625Z,94.50
2022-11-29T04:35:36.621Z,94.85
2022-11-29T04:38:16.408Z,94.85
2022-11-29T04:40:57.292Z,94.73
2022-11-29T04:43:49.673Z,94.85
2022-11-29T04:46:31.366Z,94.82
2022-11-29T04:49:26.889Z,94.84
2022-11-29T04:52:08.086Z,94.85
2022-11-29T04:54:40.489Z,95.03
2022-11-29T04:57:14.103Z,94.94
2022-11-29T04:59:45.672Z,95.35
2022-11-29T05:02:28.923Z,95.28
2022-11-29T05:05:00.494Z,95.10
2022-11-29T05:07:32.402Z,95.07
2022-11-29T05:10:07.872Z,95.53
2022-11-29T05:12:43.500Z,95.47
2022-11-29T05:15:25.007Z,96.09
2022-11-29T05:18:04.555Z,96.08
2022-11-29T05:20:40.072Z,96.29
2022-11-29T05:23:23.410Z,96.15
2022-11-29T05:25:55.624Z,96.35
2022-11-29T05:28:31.185Z,96.16
2022-11-29T05:31:17.226Z,95.90
2022-11-29T05:34:21.791Z,95.89
2022-11-29T05:36:57.256Z,95.83
2022-11-29T05:39:36.854Z,95.82
2022-11-29T05:42:18.573Z,95.95
2022-11-29T05:44:50.464Z,96.08
2022-11-29T05:47:26.879Z,95.68
2022-11-29T05:50:05.550Z,95.67
2022-11-29T05:52:43.209Z,95.64
2022-11-29T05:55:25.903Z,95.45
2022-11-29T05:57:57.798Z,95.80
2022-11-29T06:00:30.233Z,95.50
2022-11-29T06:03:03.626Z,95.24
2022-11-29T06:05:36.399Z,95.41
2022-11-29T06:08:09.006Z,95.11
2022-11-29T06:10:40.893Z,95.39
2022-11-29T06:13:21.832Z,95.31
2022-11-29T06:16:15.826Z,95.62
2022-11-29T06:18:59.941Z,95.54
2022-11-29T06:21:34.365Z,95.37
2022-11-29T06:24:25.896Z,95.69
2022-11-29T06:27:09.213Z,95.70
2022-11-29T06:29:45.296Z,95.92
2022-11-29T06:32:22.286Z,95.86
2022-11-29T06:34:54.427Z,95.67
2022-11-29T06:37:25.392Z,95.64
2022-11-29T06:39:55.236Z,95.92
2022-11-29T06:42:23.527Z,95.98
2022-11-29T06:44:52.064Z,95.88
2022-11-29T06:47:29.483Z,95.88
2022-11-29T06:49:59.865Z,96.17
2022-11-29T06:52:37.868Z,95.85
2022-11-29T06:55:15.702Z,95.73
2022-11-29T06:57:51.955Z,96.14
2022-11-29T07:00:22.467Z,96.18
2022-11-29T07:03:07.540Z,96.22
2022-11-29T07:05:36.521Z,96.25
2022-11-29T07:08:07.667Z,96.27
2022-11-29T07:10:38.523Z,96.33
2022-11-29T07:13:07.034Z,96.34
2022-11-29T07:15:36.369Z,96.76
2022-11-29T07:18:14.556Z,96.47
2022-11-29T07:20:52.349Z,96.59
2022-11-29T07:23:28.086Z,96.39
2022-11-29T07:26:05.003Z,96.90
2022-11-29T07:28:43.159Z,96.80
2022-11-29T07:31:17.617Z,97.10
2022-11-29T07:33:53.721Z,97.62
2022-11-29T07:36:30.505Z,97.22
2022-11-29T07:39:09.158Z,97.67
2022-11-29T07:41:42.009Z,97.75
2022-11-29T07:44:21.226Z,97.80
2022-11-29T07:46:49.239Z,97.64
2022-11-29T07:49:18.898Z,97.38
2022-11-29T07:51:46.844Z,97.38
2022-11-29T07:54:18.272Z,97.10
2022-11-29T07:56:46.214Z,97.15
2022-11-29T07:59:14.644Z,97.47
2022-11-29T08:01:42.834Z,97.11
2022-11-29T08:04:11.432Z,97.30
2022-11-29T08:06:40.957Z,97.31
2022-11-29T08:09:09.112Z,97.00
2022-11-29T08:11:37.209Z,96.91
2022-11-29T08:14:06.453Z,97.15
2022-11-29T08:16:34.912Z,96.77
2022-11-29T08:19:03.313Z,96.74
2022-11-29T08:21:31.249Z,96.71
2022-11-29T08:24:00.740Z,96.92
2022-11-29T08:26:31.574Z,96.50
2022-11-29T08:29:00.308Z,96.41
2022-11-29T08:31:28.227Z,96.53
2022-11-29T08:33:56.393Z,96.47
2022-11-29T08:36:24.423Z,96.23
2022-11-29T08:38:59.259Z,96.29
2022-11-29T08:41:32.140Z,96.01
2022-11-29T08:44:00.348Z,96.00
2022-11-29T08:46:48.327Z,95.69
2022-11-29T08:49:16.781Z,96.11
2022-11-29T08:51:44.964Z,95.48
2022-11-29T08:54:12.239Z,95.09
2022-11-29T08:59:29.575Z,95.36
2022-11-29T09:01:57.528Z,95.53
2022-11-29T09:04:25.893Z,94.90
2022-11-29T09:06:53.793Z,94.74
2022-11-29T09:09:22.144Z,95.10
2022-11-29T09:11:51.730Z,95.21
2022-11-29T09:14:22.899Z,94.91
2022-11-29T09:16:51.338Z,94.72
2022-11-29T09:19:19.736Z,94.90
2022-11-29T09:21:47.652Z,95.34
2022-11-29T09:24:15.968Z,95.24
2022-11-29T09:26:46.835Z,94.88
2022-11-29T09:29:17.763Z,94.83
2022-11-29T09:31:45.913Z,94.60
2022-11-29T09:34:14.674Z,94.84
2022-11-29T09:36:43.969Z,94.23
2022-11-29T09:39:13.246Z,94.28
2022-11-29T09:41:52.924Z,94.55
2022-11-29T09:44:29.794Z,94.62
2022-11-29T09:47:03.160Z,94.58
2022-11-29T09:49:43.064Z,94.71
2022-11-29T09:52:15.923Z,94.48
2022-11-29T09:54:56.624Z,94.31
2022-11-29T09:57:26.970Z,94.62
2022-11-29T09:59:59.321Z,94.37
2022-11-29T10:02:34.027Z,94.11
2022-11-29T10:05:08.243Z,94.23
2022-11-29T10:07:39.490Z,94.45
2022-11-29T10:10:12.407Z,94.46
2022-11-29T10:12:43.947Z,94.53
2022-11-29T10:15:17.762Z,94.35
2022-11-29T10:17:49.679Z,94.69
2022-11-29T10:20:19.540Z,94.82
2022-11-29T10:22:53.405Z,94.66
2022-11-29T10:25:25.767Z,94.52
2022-11-29T10:27:54.382Z,94.37
2022-11-29T10:30:24.255Z,93.94
2022-11-29T10:32:57.092Z,93.90
2022-11-29T10:35:25.513Z,93.67
2022-11-29T10:38:22.759Z,93.70
2022-11-29T10:40:47.094Z,93.86
2022-11-29T10:43:15.078Z,93.82
2022-11-29T10:45:50.318Z,94.02
2022-11-29T10:48:19.888Z,93.71
2022-11-29T10:50:49.923Z,94.33
2022-11-29T10:53:19.965Z,93.90
2022-11-29T10:55:51.665Z,93.46
2022-11-29T10:58:27.992Z,93.06
2022-11-29T11:01:00.815Z,93.05
2022-11-29T11:03:39.178Z,93.12
2022-11-29T11:06:10.617Z,93.32
2022-11-29T11:08:39.519Z,93.24
2022-11-29T11:11:08.579Z,93.47
2022-11-29T11:13:37.159Z,93.61
2022-11-29T11:16:12.239Z,93.32
2022-11-29T11:18:40.227Z,93.58
2022-11-29T11:21:10.823Z,93.39
2022-11-29T11:23:43.677Z,93.34
2022-11-29T11:26:13.912Z,93.37
2022-11-29T11:28:45.921Z,92.79
2022-11-29T11:31:15.963Z,92.89
2022-11-29T11:33:45.062Z,92.83
2022-11-29T11:36:15.122Z,92.77
2022-11-29T11:38:50.861Z,92.43
2022-11-29T11:41:44.500Z,92.55
2022-11-29T11:44:46.464Z,92.28
2022-11-29T11:47:17.010Z,92.03
2022-11-29T11:49:49.171Z,92.23
2022-11-29T11:52:21.996Z,92.09
2022-11-29T11:54:53.051Z,92.05
2022-11-29T11:57:22.401Z,92.32
2022-11-29T11:59:51.090Z,92.15
2022-11-29T12:02:37.141Z,92.10
2022-11-29T12:05:10.001Z,92.50
2022-11-29T12:08:07.250Z,92.58
2022-11-29T12:10:34.702Z,92.45
2022-11-29T12:13:03.466Z,92.54
2022-11-29T12:15:34.125Z,92.72
2022-11-29T12:18:07.178Z,92.52
2022-11-29T12:20:39.566Z,92.80
2022-11-29T12:23:23.065Z,92.47
2022-11-29T12:25:53.400Z,92.49
2022-11-29T12:28:22.457Z,92.38
2022-11-29T12:30:57.055Z,92.78
2022-11-29T12:33:37.391Z,93.25
2022-11-29T12:36:25.999Z,93.26
2022-11-29T12:39:05.217Z,93.51
2022-11-29T12:41:40.284Z,93.97
2022-11-29T12:44:19.486Z,94.30
2022-11-29T12:47:02.101Z,94.09
2022-11-29T12:49:51.199Z,94.13
2022-11-29T12:52:23.810Z,94.62
2022-11-29T12:54:59.769Z,94.69
2022-11-29T12:57:34.502Z,94.65
2022-11-29T13:00:08.077Z,94.54
2022-11-29T13:02:44.042Z,94.64
2022-11-29T13:05:20.309Z,94.79
2022-11-29T13:08:05.546Z,95.11
2022-11-29T13:10:43.157Z,94.91
2022-11-29T13:13:19.294Z,94.86
2022-11-29T13:15:51.682Z,94.49
2022-11-29T13:18:23.043Z,94.67
2022-11-29T13:20:57.917Z,94.23
2022-11-29T13:23:45.809Z,94.38
2022-11-29T13:26:19.885Z,94.57
2022-11-29T13:28:47.936Z,94.33
2022-11-29T13:31:19.513Z,94.22
2022-11-29T13:33:57.837Z,94.30
2022-11-29T13:36:33.152Z,94.18
2022-11-29T13:39:09.052Z,94.44
2022-11-29T13:41:42.222Z,94.60
2022-11-29T13:44:16.989Z,94.52
2022-11-29T13:46:48.153Z,94.65
2022-11-29T13:49:22.203Z,95.12
2022-11-29T13:52:05.056Z,94.98
2022-11-29T13:54:34.309Z,95.19
2022-11-29T13:57:04.119Z,94.92
2022-11-29T13:59:33.636Z,94.95
2022-11-29T14:02:01.934Z,94.72
2022-11-29T14:04:34.149Z,95.05
2022-11-29T14:07:06.586Z,94.89
2022-11-29T14:09:37.953Z,94.90
2022-11-29T14:12:36.685Z,94.71
2022-11-29T14:15:16.010Z,94.78
2022-11-29T14:17:53.194Z,94.75
2022-11-29T14:20:58.098Z,94.67
2022-11-29T14:23:40.351Z,94.71
2022-11-29T14:26:28.570Z,94.70
2022-11-29T14:28:57.960Z,95.06
2022-11-29T14:31:50.572Z,95.34
2022-11-29T14:34:39.205Z,95.05
2022-11-29T14:37:20.635Z,95.13
2022-11-29T14:39:52.229Z,95.01
2022-11-29T14:42:21.921Z,95.06
2022-11-29T14:44:52.047Z,94.81
2022-11-29T14:47:26.209Z,95.17
2022-11-29T14:49:57.141Z,94.90
2022-11-29T14:52:30.341Z,94.81
2022-11-29T14:55:02.873Z,95.16
2022-11-29T14:57:53.502Z,94.97
2022-11-29T15:00:23.032Z,95.16
2022-11-29T15:02:52.190Z,94.82
2022-11-29T15:05:22.024Z,94.88
2022-11-29T15:07:53.810Z,95.11
2022-11-29T15:10:26.942Z,94.92
2022-11-29T15:12:54.963Z,95.02
2022-11-29T15:15:35.467Z,94.99
2022-11-29T15:18:12.449Z,94.81
2022-11-29T15:20:54.904Z,95.01
2022-11-29T15:23:22.853Z,95.35
2022-11-29T15:25:54.373Z,95.46
2022-11-29T15:28:23.999Z,95.07
2022-11-29T15:31:01.950Z,95.35
2022-11-29T15:33:30.613Z,95.03
2022-11-29T15:36:06.422Z,94.99
2022-11-29T15:38:42.765Z,95.34
2022-11-29T15:41:22.169Z,95.21
2022-11-29T15:43:53.459Z,95.25
2022-11-29T15:46:22.911Z,95.43
2022-11-29T15:48:50.851Z,95.51
2022-11-29T15:51:25.027Z,95.34
2022-11-29T15:54:11.792Z,95.22
2022-11-29T15:56:45.883Z,95.54
2022-11-29T15:59:19.804Z,95.47
2022-11-29T16:01:49.477Z,95.59
2022-11-29T16:04:19.977Z,95.58
2022-11-29T16:06:48.977Z,95.39
2022-11-29T16:09:18.936Z,95.91
2022-11-29T16:11:48.869Z,95.70
2022-11-29T16:14:21.865Z,95.87
2022-11-29T16:16:53.262Z,95.73
2022-11-29T16:19:32.758Z,96.20
2022-11-29T16:22:15.840Z,96.18
2022-11-29T16:24:53.539Z,95.91
2022-11-29T16:27:23.688Z,95.87
2022-11-29T16:29:52.640Z,95.96
2022-11-29T16:32:26.132Z,96.33
2022-11-29T16:34:54.527Z,96.24
2022-11-29T16:37:24.085Z,96.06
2022-11-29T16:39:53.645Z,95.88
2022-11-29T16:42:26.056Z,95.93
2022-11-29T16:45:21.327Z,95.93
2022-11-29T16:47:52.749Z,95.84
2022-11-29T16:50:22.228Z,96.34
2022-11-29T16:52:56.137Z,96.22
2022-11-29T16:55:24.821Z,96.32
2022-11-29T16:57:54.288Z,96.14
2022-11-29T17:00:25.401Z,96.43
2022-11-29T17:02:53.641Z,96.51
2022-11-29T17:05:21.974Z,96.31
2022-11-29T17:07:50.475Z,96.11
2022-11-29T17:10:20.835Z,95.82
2022-11-29T17:12:50.075Z,96.24
2022-11-29T17:15:19.386Z,95.92
2022-11-29T17:17:47.734Z,96.06
2022-11-29T17:20:15.780Z,96.54
2022-11-29T17:22:43.949Z,96.67
2022-11-29T17:25:12.344Z,96.96
2022-11-29T17:27:40.910Z,97.31
2022-11-29T17:30:11.211Z,97.48
2022-11-29T17:32:40.886Z,97.27
2022-11-29T17:35:09.339Z,97.76
2022-11-29T17:37:37.554Z,97.45
2022-11-29T17:40:06.250Z,97.75
2022-11-29T17:42:34.550Z,97.92
2022-11-29T17:45:02.549Z,97.78
2022-11-29T17:47:30.721Z,97.86
2022-11-29T17:50:00.453Z,98.18
2022-11-29T17:52:28.655Z,98.13
2022-11-29T17:54:56.526Z,97.90
2022-11-29T17:57:24.878Z,98.08
2022-11-29T17:59:52.849Z,98.15
2022-11-29T18:02:21.015Z,98.51
2022-11-29T18:04:48.945Z,98.56
2022-11-29T18:07:18.464Z,98.49
2022-11-29T18:09:47.350Z,98.49
2022-11-29T18:12:15.803Z,98.78
2022-11-29T18:14:43.977Z,98.39
2022-11-29T18:17:12.538Z,98.54
2022-11-29T18:19:40.523Z,98.56
2022-11-29T18:22:09.152Z,98.42
2022-11-29T18:24:41.248Z,98.79
2022-11-29T18:27:09.478Z,98.64
2022-11-29T18:29:45.922Z,98.49
2022-11-29T18:32:14.155Z,98.64
2022-11-29T18:34:42.169Z,98.32
2022-11-29T18:37:15.989Z,98.64
2022-11-29T18:39:49.966Z,98.62
2022-11-29T18:42:18.189Z,98.77
2022-11-29T18:44:46.225Z,98.88
2022-11-29T18:47:14.604Z,98.74
2022-11-29T18:49:42.502Z,98.94
2022-11-29T18:52:10.617Z,99.09
2022-11-29T18:54:38.560Z,99.33
2022-11-29T18:57:08.091Z,99.45
2022-11-29T18:59:35.986Z,99.49
2022-11-29T19:02:04.192Z,99.20
2022-11-29T19:04:32.146Z,98.94
2022-11-29T19:07:00.285Z,99.15
2022-11-29T19:09:28.222Z,99.30
2022-11-29T19:11:56.352Z,99.42
2022-11-29T19:14:25.575Z,99.26
2022-11-29T19:16:53.980Z,99.71
2022-11-29T19:19:21.839Z,99.43
2022-11-29T19:21:50.007Z,99.62
2022-11-29T19:24:18.938Z,99.32
2022-11-29T19:26:50.015Z,99.39
2022-11-29T19:29:18.363Z,99.07
2022-11-29T19:31:48.049Z,99.24
2022-11-29T19:34:16.112Z,98.72
2022-11-29T19:36:45.383Z,99.08
2022-11-29T19:39:15.177Z,98.99
2022-11-29T19:41:44.438Z,98.89
2022-11-29T19:44:13.066Z,99.02
2022-11-29T19:46:43.241Z,98.68
2022-11-29T19:49:13.016Z,99.02
2022-11-29T19:51:41.301Z,99.11
2022-11-29T19:54:10.735Z,99.20
2022-11-29T19:56:39.214Z,98.86
2022-11-29T19:59:08.082Z,98.92
2022-11-29T20:01:42.097Z,98.96
2022-11-29T20:04:13.602Z,98.63
2022-11-29T20:06:42.353Z,99.05
2022-11-29T20:09:10.595Z,99.06
2022-11-29T20:11:38.922Z,98.81
2022-11-29T20:14:08.184Z,99.05
2022-11-29T20:16:37.821Z,98.89
2022-11-29T20:19:09.529Z,98.81
2022-11-29T20:21:43.057Z,99.00
2022-11-29T20:24:12.788Z,99.02
2022-11-29T20:26:42.413Z,98.69
2022-11-29T20:29:12.984Z,98.74
2022-11-29T20:31:49.167Z,98.61
2022-11-29T20:34:17.978Z,98.68
2022-11-29T20:37:08.278Z,98.96
2022-11-29T20:39:42.002Z,99.03
2022-11-29T20:42:31.610Z,99.14
2022-11-29T20:45:01.388Z,98.98
2022-11-29T20:47:34.585Z,99.64
2022-11-29T20:50:02.828Z,99.21
2022-11-29T20:52:39.140Z,99.04
2022-11-29T20:55:09.564Z,99.14
2022-11-29T20:57:38.360Z,99.10
2022-11-29T21:00:07.560Z,99.15
2022-11-29T21:02:35.757Z,99.36
2022-11-29T21:05:03.937Z,99.41
2022-11-29T21:07:33.671Z,99.43
2022-11-29T21:10:02.126Z,99.46
2022-11-29T21:12:31.162Z,99.43
2022-11-29T21:14:59.610Z,99.40
2022-11-29T21:17:33.496Z,99.60
2022-11-29T21:20:02.662Z,99.52
2022-11-29T21:22:38.266Z,98.99
2022-11-29T21:25:11.173Z,98.57
2022-11-29T21:27:39.863Z,98.11
2022-11-29T21:30:13.985Z,97.75
2022-11-29T21:32:42.837Z,97.72
2022-11-29T21:35:10.772Z,97.40
2022-11-29T21:37:40.672Z,97.85
2022-11-29T21:40:10.190Z,97.45
2022-11-29T21:42:38.574Z,97.66
2022-11-29T21:45:13.446Z,97.07
2022-11-29T21:47:43.826Z,97.09
2022-11-29T21:50:12.772Z,97.19
2022-11-29T21:52:44.152Z,96.97
2022-11-29T21:55:12.153Z,97.22
2022-11-29T21:57:40.286Z,96.77
2022-11-29T22:00:09.582Z,96.75
2022-11-29T22:02:37.826Z,97.04
2022-11-29T22:05:07.845Z,97.06
2022-11-29T22:07:36.074Z,97.18
2022-11-29T22:10:12.960Z,97.49
2022-11-29T22:12:51.378Z,97.52
2022-11-29T22:15:24.421Z,97.82
2022-11-29T22:17:54.022Z,98.01
2022-11-29T22:20:22.104Z,98.05
2022-11-29T22:22:51.757Z,97.79
2022-11-29T22:25:23.858Z,98.20
2022-11-29T22:27:52.051Z,97.92
2022-11-29T22:30:21.132Z,98.01
2022-11-29T22:32:49.472Z,98.14
2022-11-29T22:35:17.414Z,97.94
2022-11-29T22:37:45.721Z,98.18
2022-11-29T22:40:14.072Z,97.72
2022-11-29T22:42:43.621Z,98.08
2022-11-29T22:45:12.218Z,97.86
2022-11-29T22:47:40.371Z,98.10
2022-11-29T22:50:09.316Z,98.16
2022-11-29T22:52:37.677Z,98.01
2022-11-29T22:55:06.253Z,98.37
2022-11-29T22:57:34.442Z,98.48
2022-11-29T23:00:04.378Z,97.96
2022-11-29T23:02:32.743Z,98.18
2022-11-29T23:05:00.816Z,98.04
2022-11-29T23:07:29.067Z,98.62
2022-11-29T23:09:57.153Z,98.68
2022-11-29T23:12:25.423Z,98.52
2022-11-29T23:14:56.635Z,98.29
2022-11-29T23:17:26.463Z,98.23
2022-11-29T23:19:54.541Z,97.81
2022-11-29T23:22:22.712Z,97.79
2022-11-29T23:24:50.595Z,97.86
2022-11-29T23:27:18.738Z,97.72
2022-11-29T23:29:46.620Z,97.73
2022-11-29T23:32:14.777Z,97.74
2022-11-29T23:34:44.234Z,98.02
2022-11-29T23:37:12.624Z,98.02
2022-11-29T23:39:40.575Z,97.73
2022-11-29T23:42:11.508Z,97.44
2022-11-29T23:44:39.372Z,97.61
2022-11-29T23:47:07.702Z,97.86
2022-11-29T23:49:39.677Z,97.99
2022-11-29T23:52:09.133Z,97.57
2022-11-29T23:54:37.058Z,97.49
2022-11-29T23:57:05.322Z,97.66
2022-11-29T23:59:33.201Z,97.87
